sensor_id;sensor_type;location;lat;lon;timestamp;pressure;altitude;pressure_sealevel;temperature;humidity
8699;BME280;4386;51.236;6.742;2023-02-18T00:00:35;101853.28;;;13.38;80.59
8699;BME280;4386;51.236;6.742;2023-02-18T00:01:40;101852.44;;;13.37;80.62
8699;BME280;4386;51.236;6.742;2023-02-18T00:02:44;101857.97;;;13.34;80.79
8699;BME280;4386;51.236;6.742;2023-02-18T00:03:50;101850.84;;;13.35;80.45
8699;BME280;4386;51.236;6.742;2023-02-18T00:05:13;101851.81;;;13.34;80.58
8699;BME280;4386;51.236;6.742;2023-02-18T00:06:35;101854.56;;;13.32;80.71
8699;BME280;4386;51.236;6.742;2023-02-18T00:07:59;101855.53;;;13.31;80.73
8699;BME280;4386;51.236;6.742;2023-02-18T00:09:21;101853.91;;;13.29;80.61
8699;BME280;4386;51.236;6.742;2023-02-18T00:10:25;101853.91;;;13.29;80.68
8699;BME280;4386;51.236;6.742;2023-02-18T00:11:29;101848.59;;;13.29;80.76
8699;BME280;4386;51.236;6.742;2023-02-18T00:12:31;101852.25;;;13.28;80.68
8699;BME280;4386;51.236;6.742;2023-02-18T00:13:33;101843.28;;;13.29;80.77
8699;BME280;4386;51.236;6.742;2023-02-18T00:14:37;101847.66;;;13.30;80.87
8699;BME280;4386;51.236;6.742;2023-02-18T00:15:39;101848.50;;;13.30;80.79
8699;BME280;4386;51.236;6.742;2023-02-18T00:16:43;101841.38;;;13.31;80.84
8699;BME280;4386;51.236;6.742;2023-02-18T00:17:49;101844.03;;;13.31;80.88
8699;BME280;4386;51.236;6.742;2023-02-18T00:18:53;101841.38;;;13.31;80.86
8699;BME280;4386;51.236;6.742;2023-02-18T00:19:56;101836.91;;;13.31;80.86
8699;BME280;4386;51.236;6.742;2023-02-18T00:20:58;101834.34;;;13.30;80.80
8699;BME280;4386;51.236;6.742;2023-02-18T00:22:00;101830.72;;;13.31;80.80
8699;BME280;4386;51.236;6.742;2023-02-18T00:23:02;101836.91;;;13.31;80.89
8699;BME280;4386;51.236;6.742;2023-02-18T00:24:06;101836.91;;;13.31;80.63
8699;BME280;4386;51.236;6.742;2023-02-18T00:25:09;101836.13;;;13.29;81.03
8699;BME280;4386;51.236;6.742;2023-02-18T00:26:15;101834.34;;;13.30;80.96
8699;BME280;4386;51.236;6.742;2023-02-18T00:27:17;101830.81;;;13.29;80.90
8699;BME280;4386;51.236;6.742;2023-02-18T00:28:20;101834.34;;;13.30;80.99
8699;BME280;4386;51.236;6.742;2023-02-18T00:29:21;101830.94;;;13.28;80.92
8699;BME280;4386;51.236;6.742;2023-02-18T00:30:24;101828.28;;;13.28;80.99
8699;BME280;4386;51.236;6.742;2023-02-18T00:31:27;101820.28;;;13.28;81.05
8699;BME280;4386;51.236;6.742;2023-02-18T00:32:30;101823.91;;;13.27;80.96
8699;BME280;4386;51.236;6.742;2023-02-18T00:33:32;101821.25;;;13.27;80.92
8699;BME280;4386;51.236;6.742;2023-02-18T00:34:35;101820.28;;;13.28;80.84
8699;BME280;4386;51.236;6.742;2023-02-18T00:35:37;101823.91;;;13.27;80.81
8699;BME280;4386;51.236;6.742;2023-02-18T00:36:40;101819.53;;;13.26;80.92
8699;BME280;4386;51.236;6.742;2023-02-18T00:37:52;101815.19;;;13.25;80.72
8699;BME280;4386;51.236;6.742;2023-02-18T00:38:56;101817.09;;;13.23;81.27
8699;BME280;4386;51.236;6.742;2023-02-18T00:39:58;101825.19;;;13.21;81.09
8699;BME280;4386;51.236;6.742;2023-02-18T00:41:00;101815.41;;;13.22;81.44
8699;BME280;4386;51.236;6.742;2023-02-18T00:42:04;101815.41;;;13.22;81.14
8699;BME280;4386;51.236;6.742;2023-02-18T00:43:06;101816.38;;;13.21;81.11
8699;BME280;4386;51.236;6.742;2023-02-18T00:44:08;101820.75;;;13.22;81.59
8699;BME280;4386;51.236;6.742;2023-02-18T00:45:11;101818.91;;;13.22;81.39
8699;BME280;4386;51.236;6.742;2023-02-18T00:46:13;101817.22;;;13.21;81.11
8699;BME280;4386;51.236;6.742;2023-02-18T00:47:15;101819.88;;;13.21;81.38
8699;BME280;4386;51.236;6.742;2023-02-18T00:48:17;101816.22;;;13.22;81.45
8699;BME280;4386;51.236;6.742;2023-02-18T00:49:20;101816.13;;;13.24;81.50
8699;BME280;4386;51.236;6.742;2023-02-18T00:50:22;101825.84;;;13.25;81.69
8699;BME280;4386;51.236;6.742;2023-02-18T00:51:24;101815.19;;;13.25;81.78
8699;BME280;4386;51.236;6.742;2023-02-18T00:52:27;101816.88;;;13.26;81.46
8699;BME280;4386;51.236;6.742;2023-02-18T00:53:29;101816.88;;;13.26;81.56
8699;BME280;4386;51.236;6.742;2023-02-18T00:54:31;101816.88;;;13.26;81.38
8699;BME280;4386;51.236;6.742;2023-02-18T00:55:37;101813.34;;;13.25;81.32
8699;BME280;4386;51.236;6.742;2023-02-18T00:56:39;101818.69;;;13.25;81.44
8699;BME280;4386;51.236;6.742;2023-02-18T00:57:43;101818.56;;;13.27;81.50
8699;BME280;4386;51.236;6.742;2023-02-18T00:58:45;101816.88;;;13.26;81.83
8699;BME280;4386;51.236;6.742;2023-02-18T00:59:48;101810.69;;;13.25;81.51
8699;BME280;4386;51.236;6.742;2023-02-18T01:00:50;101802.81;;;13.24;81.51
8699;BME280;4386;51.236;6.742;2023-02-18T01:01:52;101801.88;;;13.25;81.65
8699;BME280;4386;51.236;6.742;2023-02-18T01:02:54;101802.81;;;13.24;81.62
8699;BME280;4386;51.236;6.742;2023-02-18T01:03:57;101802.81;;;13.24;81.84
8699;BME280;4386;51.236;6.742;2023-02-18T01:04:58;101796.66;;;13.23;81.35
8699;BME280;4386;51.236;6.742;2023-02-18T01:06:01;101791.44;;;13.22;81.89
8699;BME280;4386;51.236;6.742;2023-02-18T01:07:03;101794.13;;;13.22;81.59
8699;BME280;4386;51.236;6.742;2023-02-18T01:08:07;101799.53;;;13.20;81.67
8699;BME280;4386;51.236;6.742;2023-02-18T01:09:19;101787.19;;;13.19;81.55
8699;BME280;4386;51.236;6.742;2023-02-18T01:10:22;101792.63;;;13.18;81.59
8699;BME280;4386;51.236;6.742;2023-02-18T01:11:24;101785.59;;;13.17;81.64
8699;BME280;4386;51.236;6.742;2023-02-18T01:12:26;101793.56;;;13.17;81.51
8699;BME280;4386;51.236;6.742;2023-02-18T01:13:30;101787.53;;;13.15;81.66
8699;BME280;4386;51.236;6.742;2023-02-18T01:14:32;101781.22;;;13.16;81.67
8699;BME280;4386;51.236;6.742;2023-02-18T01:15:35;101783.88;;;13.16;81.85
8699;BME280;4386;51.236;6.742;2023-02-18T01:16:36;101781.34;;;13.14;81.83
8699;BME280;4386;51.236;6.742;2023-02-18T01:17:48;101792.84;;;13.15;81.72
8699;BME280;4386;51.236;6.742;2023-02-18T01:18:49;101794.53;;;13.16;81.78
8699;BME280;4386;51.236;6.742;2023-02-18T01:19:52;101792.84;;;13.15;81.93
8699;BME280;4386;51.236;6.742;2023-02-18T01:20:54;101791.13;;;13.14;81.83
8699;BME280;4386;51.236;6.742;2023-02-18T01:21:56;101788.56;;;13.12;81.79
8699;BME280;4386;51.236;6.742;2023-02-18T01:22:58;101793.91;;;13.12;81.86
8699;BME280;4386;51.236;6.742;2023-02-18T01:24:01;101793.91;;;13.12;81.93
8699;BME280;4386;51.236;6.742;2023-02-18T01:25:04;101795.72;;;13.12;81.66
8699;BME280;4386;51.236;6.742;2023-02-18T01:26:08;101794.03;;;13.11;81.92
8699;BME280;4386;51.236;6.742;2023-02-18T01:27:10;101790.50;;;13.10;81.90
8699;BME280;4386;51.236;6.742;2023-02-18T01:28:13;101786.13;;;13.09;81.81
8699;BME280;4386;51.236;6.742;2023-02-18T01:29:17;101792.41;;;13.08;82.01
8699;BME280;4386;51.236;6.742;2023-02-18T01:30:19;101787.09;;;13.08;81.90
8699;BME280;4386;51.236;6.742;2023-02-18T01:31:22;101789.66;;;13.10;81.94
8699;BME280;4386;51.236;6.742;2023-02-18T01:32:25;101786.88;;;13.11;81.88
8699;BME280;4386;51.236;6.742;2023-02-18T01:33:26;101783.38;;;13.11;81.65
8699;BME280;4386;51.236;6.742;2023-02-18T01:34:29;101786.88;;;13.11;81.85
8699;BME280;4386;51.236;6.742;2023-02-18T01:35:30;101777.09;;;13.12;82.12
8699;BME280;4386;51.236;6.742;2023-02-18T01:36:33;101774.44;;;13.12;81.81
8699;BME280;4386;51.236;6.742;2023-02-18T01:37:35;101782.19;;;13.15;81.80
8699;BME280;4386;51.236;6.742;2023-02-18T01:38:38;101771.56;;;13.15;82.02
8699;BME280;4386;51.236;6.742;2023-02-18T01:39:39;101778.56;;;13.16;82.01
8699;BME280;4386;51.236;6.742;2023-02-18T01:40:47;101769.63;;;13.17;81.98
8699;BME280;4386;51.236;6.742;2023-02-18T01:41:49;101776.66;;;13.18;81.88
8699;BME280;4386;51.236;6.742;2023-02-18T01:42:51;101771.34;;;13.18;81.86
8699;BME280;4386;51.236;6.742;2023-02-18T01:44:20;101767.69;;;13.19;81.86
8699;BME280;4386;51.236;6.742;2023-02-18T01:45:48;101764.94;;;13.20;81.94
8699;BME280;4386;51.236;6.742;2023-02-18T01:46:51;101764.06;;;13.20;81.72
8699;BME280;4386;51.236;6.742;2023-02-18T01:47:54;101759.59;;;13.20;82.03
8699;BME280;4386;51.236;6.742;2023-02-18T01:48:57;101755.13;;;13.21;81.87
8699;BME280;4386;51.236;6.742;2023-02-18T01:50:01;101751.53;;;13.22;81.89
8699;BME280;4386;51.236;6.742;2023-02-18T01:51:07;101763.84;;;13.23;81.92
8699;BME280;4386;51.236;6.742;2023-02-18T01:52:13;101753.19;;;13.23;81.55
8699;BME280;4386;51.236;6.742;2023-02-18T01:53:19;101758.53;;;13.23;82.11
8699;BME280;4386;51.236;6.742;2023-02-18T01:54:26;101753.19;;;13.23;81.84
8699;BME280;4386;51.236;6.742;2023-02-18T01:55:31;101756.84;;;13.22;81.69
8699;BME280;4386;51.236;6.742;2023-02-18T01:56:35;101760.47;;;13.21;81.64
8699;BME280;4386;51.236;6.742;2023-02-18T01:57:39;101755.13;;;13.21;81.46
8699;BME280;4386;51.236;6.742;2023-02-18T01:58:42;101742.78;;;13.20;81.88
8699;BME280;4386;51.236;6.742;2023-02-18T01:59:48;101748.97;;;13.20;81.89
8699;BME280;4386;51.236;6.742;2023-02-18T02:00:53;101749.06;;;13.19;81.88
8699;BME280;4386;51.236;6.742;2023-02-18T02:01:55;101748.09;;;13.20;81.92
8699;BME280;4386;51.236;6.742;2023-02-18T02:02:58;101747.25;;;13.19;82.03
8699;BME280;4386;51.236;6.742;2023-02-18T02:03:59;101748.09;;;13.20;81.94
8699;BME280;4386;51.236;6.742;2023-02-18T02:05:02;101746.28;;;13.20;82.06
8699;BME280;4386;51.236;6.742;2023-02-18T02:06:08;101744.50;;;13.21;81.79
8699;BME280;4386;51.236;6.742;2023-02-18T02:07:16;101749.81;;;13.21;82.13
8699;BME280;4386;51.236;6.742;2023-02-18T02:08:18;101746.28;;;13.20;82.06
8699;BME280;4386;51.236;6.742;2023-02-18T02:09:23;101744.50;;;13.21;81.84
8699;BME280;4386;51.236;6.742;2023-02-18T02:10:31;101746.19;;;13.22;82.17
8699;BME280;4386;51.236;6.742;2023-02-18T02:13:15;101742.06;;;13.18;81.86
8699;BME280;4386;51.236;6.742;2023-02-18T02:14:30;101738.53;;;13.17;82.03
8699;BME280;4386;51.236;6.742;2023-02-18T02:15:41;101740.34;;;13.17;82.04
8699;BME280;4386;51.236;6.742;2023-02-18T02:16:53;101735.97;;;13.16;82.15
8699;BME280;4386;51.236;6.742;2023-02-18T02:18:20;101736.94;;;13.15;82.16
8699;BME280;4386;51.236;6.742;2023-02-18T02:19:58;101736.09;;;13.14;82.24
8699;BME280;4386;51.236;6.742;2023-02-18T02:21:32;101734.50;;;13.12;81.97
8699;BME280;4386;51.236;6.742;2023-02-18T02:24:59;101729.41;;;13.09;82.34
8699;BME280;4386;51.236;6.742;2023-02-18T02:28:02;101722.44;;;13.06;82.47
8699;BME280;4386;51.236;6.742;2023-02-18T02:31:07;101712.88;;;13.03;82.47
8699;BME280;4386;51.236;6.742;2023-02-18T02:34:13;101705.84;;;13.02;82.61
8699;BME280;4386;51.236;6.742;2023-02-18T02:35:18;101707.88;;;12.99;82.73
8699;BME280;4386;51.236;6.742;2023-02-18T02:36:25;101705.34;;;12.97;82.75
8699;BME280;4386;51.236;6.742;2023-02-18T02:37:38;101703.63;;;12.96;83.02
8699;BME280;4386;51.236;6.742;2023-02-18T02:38:52;101708.97;;;12.96;83.07
8699;BME280;4386;51.236;6.742;2023-02-18T02:40:07;101694.94;;;12.94;83.13
8699;BME280;4386;51.236;6.742;2023-02-18T02:41:21;101695.78;;;12.95;83.10
8699;BME280;4386;51.236;6.742;2023-02-18T02:42:34;101698.53;;;12.93;83.24
8699;BME280;4386;51.236;6.742;2023-02-18T02:43:49;101703.84;;;12.93;83.22
8699;BME280;4386;51.236;6.742;2023-02-18T02:44:57;101706.53;;;12.93;83.36
8699;BME280;4386;51.236;6.742;2023-02-18T02:46:08;101716.31;;;12.93;83.60
8699;BME280;4386;51.236;6.742;2023-02-18T02:47:18;101707.50;;;12.92;83.62
8699;BME280;4386;51.236;6.742;2023-02-18T02:48:26;101701.19;;;12.93;83.51
8699;BME280;4386;51.236;6.742;2023-02-18T02:49:40;101695.88;;;12.93;83.72
8699;BME280;4386;51.236;6.742;2023-02-18T02:50:50;101709.19;;;12.93;83.55
8699;BME280;4386;51.236;6.742;2023-02-18T02:51:58;101707.50;;;12.92;84.06
8699;BME280;4386;51.236;6.742;2023-02-18T02:53:06;101697.69;;;12.93;83.96
8699;BME280;4386;51.236;6.742;2023-02-18T02:54:15;101697.59;;;12.94;84.34
8699;BME280;4386;51.236;6.742;2023-02-18T02:55:17;101694.94;;;12.94;84.33
8699;BME280;4386;51.236;6.742;2023-02-18T02:56:22;101706.28;;;12.96;84.28
8699;BME280;4386;51.236;6.742;2023-02-18T02:57:45;101693.84;;;12.97;84.10
8699;BME280;4386;51.236;6.742;2023-02-18T02:58:54;101703.63;;;12.96;84.20
8699;BME280;4386;51.236;6.742;2023-02-18T03:00:03;101691.31;;;12.95;84.28
8699;BME280;4386;51.236;6.742;2023-02-18T03:01:19;101686.00;;;12.95;84.57
8699;BME280;4386;51.236;6.742;2023-02-18T03:02:32;101686.81;;;12.96;84.49
8699;BME280;4386;51.236;6.742;2023-02-18T03:03:53;101693.97;;;12.95;84.38
8699;BME280;4386;51.236;6.742;2023-02-18T03:05:09;101688.66;;;12.95;84.52
8699;BME280;4386;51.236;6.742;2023-02-18T03:06:27;101684.28;;;12.94;84.61
8699;BME280;4386;51.236;6.742;2023-02-18T03:07:46;101686.00;;;12.95;84.66
8699;BME280;4386;51.236;6.742;2023-02-18T03:09:02;101679.81;;;12.95;84.49
8699;BME280;4386;51.236;6.742;2023-02-18T03:10:18;101684.28;;;12.94;84.67
8699;BME280;4386;51.236;6.742;2023-02-18T03:11:27;101686.94;;;12.94;84.58
8699;BME280;4386;51.236;6.742;2023-02-18T03:12:35;101678.97;;;12.94;84.57
8699;BME280;4386;51.236;6.742;2023-02-18T03:13:56;101678.00;;;12.95;84.88
8699;BME280;4386;51.236;6.742;2023-02-18T03:15:05;101671.69;;;12.96;84.92
8699;BME280;4386;51.236;6.742;2023-02-18T03:16:15;101673.41;;;12.97;84.83
8699;BME280;4386;51.236;6.742;2023-02-18T03:17:22;101673.28;;;12.99;84.61
8699;BME280;4386;51.236;6.742;2023-02-18T03:18:30;101668.81;;;12.99;85.01
8699;BME280;4386;51.236;6.742;2023-02-18T03:19:38;101667.88;;;13.00;84.98
8699;BME280;4386;51.236;6.742;2023-02-18T03:20:45;101671.38;;;13.01;84.98
8699;BME280;4386;51.236;6.742;2023-02-18T03:21:52;101671.25;;;13.02;84.96
8699;BME280;4386;51.236;6.742;2023-02-18T03:22:57;101668.59;;;13.02;85.24
8699;BME280;4386;51.236;6.742;2023-02-18T03:24:06;101678.28;;;13.03;84.92
8699;BME280;4386;51.236;6.742;2023-02-18T03:25:12;101671.25;;;13.02;85.20
8699;BME280;4386;51.236;6.742;2023-02-18T03:26:17;101678.28;;;13.03;85.04
8699;BME280;4386;51.236;6.742;2023-02-18T03:27:22;101672.97;;;13.03;84.86
8699;BME280;4386;51.236;6.742;2023-02-18T03:28:28;101666.78;;;13.03;84.92
8699;BME280;4386;51.236;6.742;2023-02-18T03:29:32;101669.56;;;13.01;84.87
8699;BME280;4386;51.236;6.742;2023-02-18T03:30:42;101662.53;;;13.00;84.94
8699;BME280;4386;51.236;6.742;2023-02-18T03:31:51;101660.84;;;12.99;85.04
8699;BME280;4386;51.236;6.742;2023-02-18T03:32:57;101659.88;;;13.00;85.12
8699;BME280;4386;51.236;6.742;2023-02-18T03:34:04;101654.56;;;13.00;84.65
8699;BME280;4386;51.236;6.742;2023-02-18T03:35:18;101658.06;;;13.01;85.04
8699;BME280;4386;51.236;6.742;2023-02-18T03:36:25;101658.94;;;13.01;85.04
8699;BME280;4386;51.236;6.742;2023-02-18T03:37:27;101659.78;;;13.02;85.13
8699;BME280;4386;51.236;6.742;2023-02-18T03:38:34;101655.28;;;13.02;85.08
8699;BME280;4386;51.236;6.742;2023-02-18T03:39:39;101660.59;;;13.02;84.87
8699;BME280;4386;51.236;6.742;2023-02-18T03:40:42;101652.63;;;13.02;84.99
8699;BME280;4386;51.236;6.742;2023-02-18T03:41:45;101649.97;;;13.02;84.99
8699;BME280;4386;51.236;6.742;2023-02-18T03:42:58;101649.16;;;13.02;84.90
8699;BME280;4386;51.236;6.742;2023-02-18T03:44:03;101648.28;;;13.01;85.05
8699;BME280;4386;51.236;6.742;2023-02-18T03:45:06;101646.56;;;13.00;84.79
8699;BME280;4386;51.236;6.742;2023-02-18T03:46:08;101639.56;;;12.99;85.09
8699;BME280;4386;51.236;6.742;2023-02-18T03:47:16;101647.66;;;12.98;85.06
8699;BME280;4386;51.236;6.742;2023-02-18T03:48:18;101632.66;;;12.97;84.83
8699;BME280;4386;51.236;6.742;2023-02-18T03:49:21;101640.75;;;12.95;84.96
8699;BME280;4386;51.236;6.742;2023-02-18T03:50:22;101629.25;;;12.95;85.31
8699;BME280;4386;51.236;6.742;2023-02-18T03:51:26;101628.28;;;12.96;84.90
8699;BME280;4386;51.236;6.742;2023-02-18T03:52:28;101623.09;;;12.94;85.13
8699;BME280;4386;51.236;6.742;2023-02-18T03:53:30;101626.81;;;12.92;85.16
8699;BME280;4386;51.236;6.742;2023-02-18T03:54:32;101621.72;;;12.89;85.23
8699;BME280;4386;51.236;6.742;2023-02-18T03:55:34;101617.38;;;12.88;85.15
8699;BME280;4386;51.236;6.742;2023-02-18T03:56:36;101614.81;;;12.86;85.50
8699;BME280;4386;51.236;6.742;2023-02-18T03:57:39;101614.94;;;12.85;85.51
8699;BME280;4386;51.236;6.742;2023-02-18T03:58:40;101619.41;;;12.84;85.44
8699;BME280;4386;51.236;6.742;2023-02-18T03:59:43;101609.72;;;12.83;85.55
8699;BME280;4386;51.236;6.742;2023-02-18T04:00:44;101611.50;;;12.83;85.73
8699;BME280;4386;51.236;6.742;2023-02-18T04:01:47;101611.50;;;12.83;85.82
8699;BME280;4386;51.236;6.742;2023-02-18T04:02:50;101617.91;;;12.80;85.65
8699;BME280;4386;51.236;6.742;2023-02-18T04:03:53;101618.91;;;12.79;86.14
8699;BME280;4386;51.236;6.742;2023-02-18T04:04:55;101613.69;;;12.78;85.77
8699;BME280;4386;51.236;6.742;2023-02-18T04:05:58;101614.63;;;12.77;85.95
8699;BME280;4386;51.236;6.742;2023-02-18T04:07:01;101612.81;;;12.77;86.04
8699;BME280;4386;51.236;6.742;2023-02-18T04:08:03;101608.59;;;12.75;85.84
8699;BME280;4386;51.236;6.742;2023-02-18T04:09:06;101608.59;;;12.75;86.21
8699;BME280;4386;51.236;6.742;2023-02-18T04:10:10;101613.03;;;12.74;86.08
8699;BME280;4386;51.236;6.742;2023-02-18T04:11:11;101611.34;;;12.73;86.28
8699;BME280;4386;51.236;6.742;2023-02-18T04:12:14;101609.53;;;12.74;86.16
8699;BME280;4386;51.236;6.742;2023-02-18T04:13:26;101608.81;;;12.72;86.60
8699;BME280;4386;51.236;6.742;2023-02-18T04:14:29;101599.03;;;12.72;86.41
8699;BME280;4386;51.236;6.742;2023-02-18T04:15:30;101595.38;;;12.73;86.77
8699;BME280;4386;51.236;6.742;2023-02-18T04:16:34;101598.03;;;12.73;86.54
8699;BME280;4386;51.236;6.742;2023-02-18T04:17:36;101591.91;;;12.73;86.64
8699;BME280;4386;51.236;6.742;2023-02-18T04:18:39;101600.69;;;12.73;86.63
8699;BME280;4386;51.236;6.742;2023-02-18T04:19:40;101601.69;;;12.72;86.64
8699;BME280;4386;51.236;6.742;2023-02-18T04:20:43;101609.66;;;12.72;86.94
8699;BME280;4386;51.236;6.742;2023-02-18T04:21:46;101602.63;;;12.71;86.75
8699;BME280;4386;51.236;6.742;2023-02-18T04:22:50;101594.66;;;12.71;86.51
8699;BME280;4386;51.236;6.742;2023-02-18T04:23:52;101602.63;;;12.71;86.72
8699;BME280;4386;51.236;6.742;2023-02-18T04:24:54;101600.06;;;12.70;86.90
8699;BME280;4386;51.236;6.742;2023-02-18T04:25:56;101603.72;;;12.69;86.76
8699;BME280;4386;51.236;6.742;2023-02-18T04:26:58;101592.22;;;12.68;86.94
8699;BME280;4386;51.236;6.742;2023-02-18T04:28:00;101600.19;;;12.68;87.02
8699;BME280;4386;51.236;6.742;2023-02-18T04:29:03;101599.25;;;12.69;86.89
8699;BME280;4386;51.236;6.742;2023-02-18T04:30:06;101599.25;;;12.69;87.02
8699;BME280;4386;51.236;6.742;2023-02-18T04:31:19;101594.88;;;12.68;86.97
8699;BME280;4386;51.236;6.742;2023-02-18T04:32:21;101602.84;;;12.68;87.11
8699;BME280;4386;51.236;6.742;2023-02-18T04:33:24;101596.69;;;12.68;87.21
8699;BME280;4386;51.236;6.742;2023-02-18T04:34:25;101602.00;;;12.68;87.06
8699;BME280;4386;51.236;6.742;2023-02-18T04:35:28;101593.16;;;12.67;87.17
8699;BME280;4386;51.236;6.742;2023-02-18T04:36:29;101588.84;;;12.66;87.18
8699;BME280;4386;51.236;6.742;2023-02-18T04:37:32;101594.16;;;12.66;87.24
8699;BME280;4386;51.236;6.742;2023-02-18T04:38:36;101594.16;;;12.66;87.35
8699;BME280;4386;51.236;6.742;2023-02-18T04:39:38;101596.06;;;12.64;87.39
8699;BME280;4386;51.236;6.742;2023-02-18T04:40:40;101590.72;;;12.64;87.50
8699;BME280;4386;51.236;6.742;2023-02-18T04:41:42;101594.34;;;12.63;87.48
8699;BME280;4386;51.236;6.742;2023-02-18T04:42:45;101593.75;;;12.60;87.36
8699;BME280;4386;51.236;6.742;2023-02-18T04:43:46;101586.72;;;12.59;87.63
8699;BME280;4386;51.236;6.742;2023-02-18T04:44:49;101579.81;;;12.56;87.46
8699;BME280;4386;51.236;6.742;2023-02-18T04:46:00;101580.78;;;12.55;87.71
8699;BME280;4386;51.236;6.742;2023-02-18T04:47:04;101577.16;;;12.56;87.60
8699;BME280;4386;51.236;6.742;2023-02-18T04:48:05;101579.81;;;12.56;87.93
8699;BME280;4386;51.236;6.742;2023-02-18T04:49:08;101579.06;;;12.54;87.65
8699;BME280;4386;51.236;6.742;2023-02-18T04:50:10;101584.38;;;12.54;87.78
8699;BME280;4386;51.236;6.742;2023-02-18T04:51:12;101581.84;;;12.52;87.76
8699;BME280;4386;51.236;6.742;2023-02-18T04:52:14;101576.53;;;12.52;87.77
8699;BME280;4386;51.236;6.742;2023-02-18T04:53:17;101573.97;;;12.51;87.87
8699;BME280;4386;51.236;6.742;2023-02-18T04:54:19;101573.25;;;12.49;87.96
8699;BME280;4386;51.236;6.742;2023-02-18T04:55:22;101572.25;;;12.50;87.89
8699;BME280;4386;51.236;6.742;2023-02-18T04:56:24;101574.19;;;12.48;88.02
8699;BME280;4386;51.236;6.742;2023-02-18T04:57:26;101581.22;;;12.49;88.17
8699;BME280;4386;51.236;6.742;2023-02-18T04:58:28;101568.88;;;12.48;87.94
8699;BME280;4386;51.236;6.742;2023-02-18T04:59:31;101571.53;;;12.48;88.07
8699;BME280;4386;51.236;6.742;2023-02-18T05:00:32;101575.06;;;12.48;88.05
8699;BME280;4386;51.236;6.742;2023-02-18T05:01:36;101568.88;;;12.48;88.31
8699;BME280;4386;51.236;6.742;2023-02-18T05:02:38;101572.50;;;12.47;88.13
8699;BME280;4386;51.236;6.742;2023-02-18T05:03:40;101565.50;;;12.46;88.15
8699;BME280;4386;51.236;6.742;2023-02-18T05:04:42;101569.97;;;12.45;88.11
8699;BME280;4386;51.236;6.742;2023-02-18T05:05:45;101563.88;;;12.43;88.19
8699;BME280;4386;51.236;6.742;2023-02-18T05:06:47;101570.06;;;12.44;88.52
8699;BME280;4386;51.236;6.742;2023-02-18T05:07:49;101566.53;;;12.43;88.22
8699;BME280;4386;51.236;6.742;2023-02-18T05:08:51;101565.72;;;12.43;88.28
8699;BME280;4386;51.236;6.742;2023-02-18T05:09:55;101556.97;;;12.41;88.24
8699;BME280;4386;51.236;6.742;2023-02-18T05:10:56;101555.31;;;12.40;88.39
8699;BME280;4386;51.236;6.742;2023-02-18T05:11:59;101560.63;;;12.40;88.47
8699;BME280;4386;51.236;6.742;2023-02-18T05:13:00;101572.09;;;12.40;88.31
8699;BME280;4386;51.236;6.742;2023-02-18T05:14:03;101565.94;;;12.40;88.65
8699;BME280;4386;51.236;6.742;2023-02-18T05:15:14;101555.31;;;12.40;88.31
8699;BME280;4386;51.236;6.742;2023-02-18T05:16:16;101550.94;;;12.39;88.44
8699;BME280;4386;51.236;6.742;2023-02-18T05:17:18;101556.25;;;12.39;88.63
8699;BME280;4386;51.236;6.742;2023-02-18T05:18:21;101556.25;;;12.39;88.43
8699;BME280;4386;51.236;6.742;2023-02-18T05:19:22;101550.94;;;12.39;88.70
8699;BME280;4386;51.236;6.742;2023-02-18T05:20:27;101554.56;;;12.38;88.83
8699;BME280;4386;51.236;6.742;2023-02-18T05:21:29;101550.19;;;12.37;88.85
8699;BME280;4386;51.236;6.742;2023-02-18T05:22:31;101548.50;;;12.36;88.64
8699;BME280;4386;51.236;6.742;2023-02-18T05:23:39;101549.47;;;12.35;88.80
8699;BME280;4386;51.236;6.742;2023-02-18T05:24:42;101545.09;;;12.34;88.63
8699;BME280;4386;51.236;6.742;2023-02-18T05:25:45;101546.16;;;12.31;88.69
8699;BME280;4386;51.236;6.742;2023-02-18T05:26:47;101543.41;;;12.33;89.05
8699;BME280;4386;51.236;6.742;2023-02-18T05:27:59;101539.06;;;12.32;88.82
8699;BME280;4386;51.236;6.742;2023-02-18T05:29:02;101532.78;;;12.33;89.01
8699;BME280;4386;51.236;6.742;2023-02-18T05:30:05;101528.41;;;12.32;89.04
8699;BME280;4386;51.236;6.742;2023-02-18T05:31:08;101528.41;;;12.32;88.99
8699;BME280;4386;51.236;6.742;2023-02-18T05:32:10;101525.75;;;12.32;89.11
8699;BME280;4386;51.236;6.742;2023-02-18T05:33:12;101522.25;;;12.31;89.18
8699;BME280;4386;51.236;6.742;2023-02-18T05:34:14;101516.06;;;12.31;88.99
8699;BME280;4386;51.236;6.742;2023-02-18T05:35:17;101519.72;;;12.30;89.36
8699;BME280;4386;51.236;6.742;2023-02-18T05:36:19;101514.41;;;12.30;89.32
8699;BME280;4386;51.236;6.742;2023-02-18T05:37:21;101518.75;;;12.31;89.18
8699;BME280;4386;51.236;6.742;2023-02-18T05:38:23;101513.41;;;12.31;89.17
8699;BME280;4386;51.236;6.742;2023-02-18T05:39:25;101516.06;;;12.31;89.38
8699;BME280;4386;51.236;6.742;2023-02-18T05:40:27;101513.41;;;12.31;89.07
8699;BME280;4386;51.236;6.742;2023-02-18T05:41:31;101511.63;;;12.31;89.42
8699;BME280;4386;51.236;6.742;2023-02-18T05:42:38;101518.75;;;12.31;89.07
8699;BME280;4386;51.236;6.742;2023-02-18T05:43:41;101508.97;;;12.31;89.31
8699;BME280;4386;51.236;6.742;2023-02-18T05:45:02;101504.50;;;12.32;89.29
8699;BME280;4386;51.236;6.742;2023-02-18T05:46:04;101502.78;;;12.31;89.19
8699;BME280;4386;51.236;6.742;2023-02-18T05:47:08;101509.09;;;12.30;89.41
8699;BME280;4386;51.236;6.742;2023-02-18T05:48:12;101505.56;;;12.29;89.05
8699;BME280;4386;51.236;6.742;2023-02-18T05:49:13;101510.03;;;12.29;89.28
8699;BME280;4386;51.236;6.742;2023-02-18T05:50:16;101510.13;;;12.27;89.25
8699;BME280;4386;51.236;6.742;2023-02-18T05:51:18;101505.03;;;12.24;89.11
8699;BME280;4386;51.236;6.742;2023-02-18T05:52:20;101506.84;;;12.24;89.36
8699;BME280;4386;51.236;6.742;2023-02-18T05:53:23;101511.34;;;12.23;89.34
8699;BME280;4386;51.236;6.742;2023-02-18T05:54:26;101510.47;;;12.23;89.47
8699;BME280;4386;51.236;6.742;2023-02-18T05:55:28;101494.63;;;12.21;89.53
8699;BME280;4386;51.236;6.742;2023-02-18T05:56:32;101495.41;;;12.23;89.53
8699;BME280;4386;51.236;6.742;2023-02-18T05:57:33;101496.34;;;12.22;89.49
8699;BME280;4386;51.236;6.742;2023-02-18T05:58:36;101485.72;;;12.22;89.49
8699;BME280;4386;51.236;6.742;2023-02-18T05:59:38;101483.16;;;12.21;89.50